sensor_id;sensor_type;location;lat;lon;timestamp;P1;P2;P0
78316;PMS7003;67572;50.930;18.276;2023-04-07T00:01:47;33.00;19.00;11.33
78316;PMS7003;67572;50.930;18.276;2023-04-07T00:04:52;31.00;23.67;17.33
78316;PMS7003;67572;50.930;18.276;2023-04-07T00:07:58;40.67;34.00;24.00
78316;PMS7003;67572;50.930;18.276;2023-04-07T00:11:01;37.33;30.67;22.67
78316;PMS7003;67572;50.930;18.276;2023-04-07T00:14:05;26.33;21.67;16.33
78316;PMS7003;67572;50.930;18.276;2023-04-07T00:17:08;43.67;34.33;25.00
78316;PMS7003;67572;50.930;18.276;2023-04-07T00:20:13;15.00;13.67;10.67
78316;PMS7003;67572;50.930;18.276;2023-04-07T00:23:16;28.00;24.33;14.33
78316;PMS7003;67572;50.930;18.276;2023-04-07T00:26:20;23.00;17.67;14.67
78316;PMS7003;67572;50.930;18.276;2023-04-07T00:29:24;41.33;31.33;21.00
78316;PMS7003;67572;50.930;18.276;2023-04-07T00:32:27;27.33;20.33;10.33
78316;PMS7003;67572;50.930;18.276;2023-04-07T00:35:35;28.67;24.33;18.67
78316;PMS7003;67572;50.930;18.276;2023-04-07T00:38:39;32.67;31.33;18.33
78316;PMS7003;67572;50.930;18.276;2023-04-07T00:41:42;38.33;24.00;16.67
78316;PMS7003;67572;50.930;18.276;2023-04-07T00:44:45;39.67;34.00;17.33
78316;PMS7003;67572;50.930;18.276;2023-04-07T00:47:49;11.33;1.00;0.00
78316;PMS7003;67572;50.930;18.276;2023-04-07T00:50:54;26.67;25.33;19.00
78316;PMS7003;67572;50.930;18.276;2023-04-07T00:53:57;37.00;30.00;19.67
78316;PMS7003;67572;50.930;18.276;2023-04-07T00:57:02;26.67;25.33;19.67
78316;PMS7003;67572;50.930;18.276;2023-04-07T01:00:06;13.67;12.67;11.33
78316;PMS7003;67572;50.930;18.276;2023-04-07T01:03:12;23.67;16.67;12.00
78316;PMS7003;67572;50.930;18.276;2023-04-07T01:06:23;25.67;22.67;17.33
78316;PMS7003;67572;50.930;18.276;2023-04-07T01:09:34;30.67;27.67;15.67
78316;PMS7003;67572;50.930;18.276;2023-04-07T01:12:46;31.33;28.33;20.00
78316;PMS7003;67572;50.930;18.276;2023-04-07T01:15:59;30.33;28.67;24.00
78316;PMS7003;67572;50.930;18.276;2023-04-07T01:19:13;38.33;32.67;20.33
78316;PMS7003;67572;50.930;18.276;2023-04-07T01:22:28;19.00;15.33;14.67
78316;PMS7003;67572;50.930;18.276;2023-04-07T01:25:50;19.67;19.33;11.33
78316;PMS7003;67572;50.930;18.276;2023-04-07T01:29:06;22.67;22.00;13.67
78316;PMS7003;67572;50.930;18.276;2023-04-07T01:32:21;27.33;23.67;16.33
78316;PMS7003;67572;50.930;18.276;2023-04-07T01:35:28;20.00;18.33;12.67
78316;PMS7003;67572;50.930;18.276;2023-04-07T01:38:34;20.00;15.33;12.00
78316;PMS7003;67572;50.930;18.276;2023-04-07T01:41:38;18.67;15.33;10.67
78316;PMS7003;67572;50.930;18.276;2023-04-07T01:44:46;15.33;13.67;11.33
78316;PMS7003;67572;50.930;18.276;2023-04-07T01:47:50;18.33;16.00;12.00
78316;PMS7003;67572;50.930;18.276;2023-04-07T01:50:55;16.67;12.67;8.33
78316;PMS7003;67572;50.930;18.276;2023-04-07T01:53:59;15.33;14.33;9.33
78316;PMS7003;67572;50.930;18.276;2023-04-07T01:57:04;17.33;15.33;9.67
78316;PMS7003;67572;50.930;18.276;2023-04-07T02:00:10;22.67;19.67;12.33
78316;PMS7003;67572;50.930;18.276;2023-04-07T02:03:22;18.00;13.33;6.67
78316;PMS7003;67572;50.930;18.276;2023-04-07T02:06:33;27.67;23.33;14.67
78316;PMS7003;67572;50.930;18.276;2023-04-07T02:09:41;20.33;18.00;10.00
78316;PMS7003;67572;50.930;18.276;2023-04-07T02:12:45;14.00;8.67;6.00
78316;PMS7003;67572;50.930;18.276;2023-04-07T02:15:54;31.67;27.33;16.33
78316;PMS7003;67572;50.930;18.276;2023-04-07T02:18:58;21.33;20.67;13.67
78316;PMS7003;67572;50.930;18.276;2023-04-07T02:22:03;23.33;21.33;16.00
78316;PMS7003;67572;50.930;18.276;2023-04-07T02:25:19;12.00;9.67;5.33
78316;PMS7003;67572;50.930;18.276;2023-04-07T02:28:24;20.00;16.33;10.67
78316;PMS7003;67572;50.930;18.276;2023-04-07T02:31:28;27.00;21.67;16.00
78316;PMS7003;67572;50.930;18.276;2023-04-07T02:34:34;28.67;22.00;14.33
78316;PMS7003;67572;50.930;18.276;2023-04-07T02:37:39;6.33;6.00;0.00
78316;PMS7003;67572;50.930;18.276;2023-04-07T02:40:43;12.00;11.33;7.67
78316;PMS7003;67572;50.930;18.276;2023-04-07T02:43:46;23.67;18.67;12.67
78316;PMS7003;67572;50.930;18.276;2023-04-07T02:46:51;15.00;13.00;9.33
78316;PMS7003;67572;50.930;18.276;2023-04-07T02:49:57;22.67;16.67;13.00
78316;PMS7003;67572;50.930;18.276;2023-04-07T02:53:00;16.00;16.00;10.67
78316;PMS7003;67572;50.930;18.276;2023-04-07T02:56:04;21.00;19.00;13.00
78316;PMS7003;67572;50.930;18.276;2023-04-07T02:59:07;24.33;19.67;14.33
78316;PMS7003;67572;50.930;18.276;2023-04-07T03:02:17;36.33;25.00;16.00
78316;PMS7003;67572;50.930;18.276;2023-04-07T03:05:21;18.00;12.00;7.00
78316;PMS7003;67572;50.930;18.276;2023-04-07T03:08:25;11.67;5.67;2.33
78316;PMS7003;67572;50.930;18.276;2023-04-07T03:11:29;23.00;18.00;12.67
78316;PMS7003;67572;50.930;18.276;2023-04-07T03:14:34;17.33;15.67;12.00
78316;PMS7003;67572;50.930;18.276;2023-04-07T03:17:39;29.33;22.67;13.00
78316;PMS7003;67572;50.930;18.276;2023-04-07T03:20:44;27.67;23.33;19.00
78316;PMS7003;67572;50.930;18.276;2023-04-07T03:23:50;10.67;9.00;9.00
78316;PMS7003;67572;50.930;18.276;2023-04-07T03:26:54;19.67;16.67;10.00
78316;PMS7003;67572;50.930;18.276;2023-04-07T03:30:09;16.33;13.33;11.67
78316;PMS7003;67572;50.930;18.276;2023-04-07T03:33:15;29.00;24.33;16.33
78316;PMS7003;67572;50.930;18.276;2023-04-07T03:36:18;12.33;11.33;7.00
78316;PMS7003;67572;50.930;18.276;2023-04-07T03:39:22;33.00;30.33;23.33
78316;PMS7003;67572;50.930;18.276;2023-04-07T03:42:31;16.00;15.00;12.33
78316;PMS7003;67572;50.930;18.276;2023-04-07T03:45:37;22.00;20.33;15.33
78316;PMS7003;67572;50.930;18.276;2023-04-07T03:48:43;13.00;10.00;9.00
78316;PMS7003;67572;50.930;18.276;2023-04-07T03:51:47;13.33;10.67;7.00
78316;PMS7003;67572;50.930;18.276;2023-04-07T03:54:52;7.00;6.33;6.33
78316;PMS7003;67572;50.930;18.276;2023-04-07T03:58:01;18.67;18.67;13.00
78316;PMS7003;67572;50.930;18.276;2023-04-07T04:01:08;27.33;27.33;19.67
78316;PMS7003;67572;50.930;18.276;2023-04-07T04:04:13;22.33;17.67;15.33
78316;PMS7003;67572;50.930;18.276;2023-04-07T04:07:18;30.33;23.33;16.00
78316;PMS7003;67572;50.930;18.276;2023-04-07T04:10:24;30.33;26.00;18.33
78316;PMS7003;67572;50.930;18.276;2023-04-07T04:13:29;28.33;21.33;16.67
78316;PMS7003;67572;50.930;18.276;2023-04-07T04:16:37;32.33;25.00;18.00
78316;PMS7003;67572;50.930;18.276;2023-04-07T04:19:56;23.33;16.67;13.00
78316;PMS7003;67572;50.930;18.276;2023-04-07T04:23:19;26.33;21.33;14.67
78316;PMS7003;67572;50.930;18.276;2023-04-07T04:26:26;17.67;17.67;13.67
78316;PMS7003;67572;50.930;18.276;2023-04-07T04:29:37;24.33;20.33;15.00
78316;PMS7003;67572;50.930;18.276;2023-04-07T04:32:43;33.67;24.67;12.00
78316;PMS7003;67572;50.930;18.276;2023-04-07T04:35:51;24.67;20.33;12.00
78316;PMS7003;67572;50.930;18.276;2023-04-07T04:38:55;27.33;19.33;11.33
78316;PMS7003;67572;50.930;18.276;2023-04-07T04:41:59;24.33;21.33;12.33
78316;PMS7003;67572;50.930;18.276;2023-04-07T04:45:09;23.67;19.00;12.00
78316;PMS7003;67572;50.930;18.276;2023-04-07T04:48:17;22.00;21.67;11.33
78316;PMS7003;67572;50.930;18.276;2023-04-07T04:51:22;27.33;19.67;15.33
78316;PMS7003;67572;50.930;18.276;2023-04-07T04:54:32;24.67;21.33;14.33
78316;PMS7003;67572;50.930;18.276;2023-04-07T04:57:36;24.33;21.00;14.33
78316;PMS7003;67572;50.930;18.276;2023-04-07T05:00:44;16.00;14.33;12.00
78316;PMS7003;67572;50.930;18.276;2023-04-07T05:03:48;15.33;13.33;8.33
78316;PMS7003;67572;50.930;18.276;2023-04-07T05:06:58;22.00;19.00;14.33
78316;PMS7003;67572;50.930;18.276;2023-04-07T05:10:04;27.00;24.33;15.33
78316;PMS7003;67572;50.930;18.276;2023-04-07T05:13:11;13.33;10.67;6.33
78316;PMS7003;67572;50.930;18.276;2023-04-07T05:16:15;20.33;20.33;15.33
78316;PMS7003;67572;50.930;18.276;2023-04-07T05:19:19;19.00;18.33;12.33
78316;PMS7003;67572;50.930;18.276;2023-04-07T05:22:25;19.33;17.00;12.00
78316;PMS7003;67572;50.930;18.276;2023-04-07T05:25:29;24.67;21.33;15.67
78316;PMS7003;67572;50.930;18.276;2023-04-07T05:28:38;31.67;30.33;18.67
78316;PMS7003;67572;50.930;18.276;2023-04-07T05:31:48;43.33;40.33;28.33
78316;PMS7003;67572;50.930;18.276;2023-04-07T05:34:54;40.00;38.00;28.67
78316;PMS7003;67572;50.930;18.276;2023-04-07T05:38:04;25.67;19.67;16.00
78316;PMS7003;67572;50.930;18.276;2023-04-07T05:41:07;26.33;24.67;16.00
78316;PMS7003;67572;50.930;18.276;2023-04-07T05:44:12;8.33;6.67;4.00
78316;PMS7003;67572;50.930;18.276;2023-04-07T05:47:16;4.33;3.00;3.00
78316;PMS7003;67572;50.930;18.276;2023-04-07T05:50:23;28.67;25.67;19.00
78316;PMS7003;67572;50.930;18.276;2023-04-07T05:53:28;19.67;16.67;12.67
78316;PMS7003;67572;50.930;18.276;2023-04-07T05:56:32;16.00;13.67;12.33
78316;PMS7003;67572;50.930;18.276;2023-04-07T05:59:35;9.00;7.67;4.00
78316;PMS7003;67572;50.930;18.276;2023-04-07T06:02:40;18.00;14.33;9.33
78316;PMS7003;67572;50.930;18.276;2023-04-07T06:05:50;20.33;15.33;10.33
78316;PMS7003;67572;50.930;18.276;2023-04-07T06:08:56;19.00;18.67;12.67
78316;PMS7003;67572;50.930;18.276;2023-04-07T06:12:00;27.67;20.67;16.67
78316;PMS7003;67572;50.930;18.276;2023-04-07T06:15:06;24.00;19.00;14.33
78316;PMS7003;67572;50.930;18.276;2023-04-07T06:18:11;11.67;8.33;3.00
78316;PMS7003;67572;50.930;18.276;2023-04-07T06:21:15;15.33;7.00;6.33
78316;PMS7003;67572;50.930;18.276;2023-04-07T06:24:23;18.00;15.00;11.33
78316;PMS7003;67572;50.930;18.276;2023-04-07T06:27:27;21.33;21.33;15.00
78316;PMS7003;67572;50.930;18.276;2023-04-07T06:30:31;26.00;22.33;14.67
78316;PMS7003;67572;50.930;18.276;2023-04-07T06:33:37;22.67;19.00;7.00
78316;PMS7003;67572;50.930;18.276;2023-04-07T06:36:41;16.67;16.67;12.00
78316;PMS7003;67572;50.930;18.276;2023-04-07T06:39:47;15.67;12.67;11.33
78316;PMS7003;67572;50.930;18.276;2023-04-07T06:42:51;16.00;15.00;8.33
78316;PMS7003;67572;50.930;18.276;2023-04-07T06:46:09;12.00;6.67;4.00
78316;PMS7003;67572;50.930;18.276;2023-04-07T06:49:13;24.33;20.33;15.00
78316;PMS7003;67572;50.930;18.276;2023-04-07T06:52:17;21.00;19.00;13.00
78316;PMS7003;67572;50.930;18.276;2023-04-07T06:55:31;16.00;13.00;7.67
78316;PMS7003;67572;50.930;18.276;2023-04-07T06:58:35;28.33;21.67;12.67
78316;PMS7003;67572;50.930;18.276;2023-04-07T07:01:39;22.00;19.33;13.67
78316;PMS7003;67572;50.930;18.276;2023-04-07T07:04:44;19.33;12.00;9.00
78316;PMS7003;67572;50.930;18.276;2023-04-07T07:07:54;13.33;9.33;6.00
78316;PMS7003;67572;50.930;18.276;2023-04-07T07:10:59;20.33;13.67;12.67
78316;PMS7003;67572;50.930;18.276;2023-04-07T07:14:03;9.00;7.67;3.00
78316;PMS7003;67572;50.930;18.276;2023-04-07T07:17:08;19.67;15.00;9.00
78316;PMS7003;67572;50.930;18.276;2023-04-07T07:20:11;18.67;17.33;10.67
78316;PMS7003;67572;50.930;18.276;2023-04-07T07:23:15;19.67;14.33;12.00
78316;PMS7003;67572;50.930;18.276;2023-04-07T07:26:22;14.67;12.33;7.67
78316;PMS7003;67572;50.930;18.276;2023-04-07T07:29:27;14.67;14.67;11.67
78316;PMS7003;67572;50.930;18.276;2023-04-07T07:32:31;21.33;21.00;15.00
78316;PMS7003;67572;50.930;18.276;2023-04-07T07:35:35;24.33;23.00;16.67
78316;PMS7003;67572;50.930;18.276;2023-04-07T07:38:39;20.00;18.75;12.00
78316;PMS7003;67572;50.930;18.276;2023-04-07T07:41:46;26.00;17.75;11.25
78316;PMS7003;67572;50.930;18.276;2023-04-07T07:44:52;23.25;16.75;10.50
78316;PMS7003;67572;50.930;18.276;2023-04-07T07:47:56;22.00;16.50;12.50
78316;PMS7003;67572;50.930;18.276;2023-04-07T07:51:02;13.00;10.50;3.75
78316;PMS7003;67572;50.930;18.276;2023-04-07T07:54:05;25.33;23.67;16.33
78316;PMS7003;67572;50.930;18.276;2023-04-07T07:57:11;18.00;15.75;12.00
78316;PMS7003;67572;50.930;18.276;2023-04-07T08:00:16;45.67;41.00;21.33
78316;PMS7003;67572;50.930;18.276;2023-04-07T08:03:19;28.33;20.67;13.33
78316;PMS7003;67572;50.930;18.276;2023-04-07T08:06:24;24.67;20.00;12.67
78316;PMS7003;67572;50.930;18.276;2023-04-07T08:09:27;22.67;19.33;15.33
78316;PMS7003;67572;50.930;18.276;2023-04-07T08:12:36;21.33;16.67;10.67
78316;PMS7003;67572;50.930;18.276;2023-04-07T08:15:40;16.00;13.67;5.33
78316;PMS7003;67572;50.930;18.276;2023-04-07T08:18:48;19.00;18.33;13.00
78316;PMS7003;67572;50.930;18.276;2023-04-07T08:21:57;23.25;17.00;12.75
78316;PMS7003;67572;50.930;18.276;2023-04-07T08:25:04;29.67;28.67;19.00
78316;PMS7003;67572;50.930;18.276;2023-04-07T08:28:09;22.50;18.25;12.25
78316;PMS7003;67572;50.930;18.276;2023-04-07T08:31:13;15.50;14.00;11.00
78316;PMS7003;67572;50.930;18.276;2023-04-07T08:34:16;29.00;22.50;13.50
78316;PMS7003;67572;50.930;18.276;2023-04-07T08:37:22;26.50;19.50;12.75
78316;PMS7003;67572;50.930;18.276;2023-04-07T08:40:27;38.00;31.67;24.00
78316;PMS7003;67572;50.930;18.276;2023-04-07T08:43:32;33.33;31.00;22.67
78316;PMS7003;67572;50.930;18.276;2023-04-07T08:46:47;21.25;16.50;12.50
78316;PMS7003;67572;50.930;18.276;2023-04-07T08:49:53;31.33;30.00;17.67
78316;PMS7003;67572;50.930;18.276;2023-04-07T08:52:59;27.67;24.67;16.00
78316;PMS7003;67572;50.930;18.276;2023-04-07T08:56:10;26.25;21.75;14.00
78316;PMS7003;67572;50.930;18.276;2023-04-07T08:59:15;27.67;21.67;14.33
78316;PMS7003;67572;50.930;18.276;2023-04-07T09:02:19;26.00;20.00;14.00
78316;PMS7003;67572;50.930;18.276;2023-04-07T09:05:24;27.67;25.00;15.33
78316;PMS7003;67572;50.930;18.276;2023-04-07T09:08:28;36.33;28.00;19.67
78316;PMS7003;67572;50.930;18.276;2023-04-07T09:11:33;33.25;26.50;18.00
78316;PMS7003;67572;50.930;18.276;2023-04-07T09:14:40;35.67;30.67;20.67
78316;PMS7003;67572;50.930;18.276;2023-04-07T09:17:44;31.00;26.75;18.00
78316;PMS7003;67572;50.930;18.276;2023-04-07T09:20:58;29.33;27.67;19.00
78316;PMS7003;67572;50.930;18.276;2023-04-07T09:24:02;27.25;25.25;14.00
78316;PMS7003;67572;50.930;18.276;2023-04-07T09:27:23;22.50;18.50;14.00
78316;PMS7003;67572;50.930;18.276;2023-04-07T09:30:33;21.00;20.00;12.50
78316;PMS7003;67572;50.930;18.276;2023-04-07T09:33:38;19.25;19.25;13.00
78316;PMS7003;67572;50.930;18.276;2023-04-07T09:36:42;19.50;16.50;13.00
78316;PMS7003;67572;50.930;18.276;2023-04-07T09:39:49;29.50;26.00;18.75
78316;PMS7003;67572;50.930;18.276;2023-04-07T09:42:55;23.50;21.00;12.25
78316;PMS7003;67572;50.930;18.276;2023-04-07T09:46:09;26.00;21.00;16.50
78316;PMS7003;67572;50.930;18.276;2023-04-07T09:49:14;27.75;22.50;18.00
78316;PMS7003;67572;50.930;18.276;2023-04-07T09:52:21;20.67;15.33;15.33
78316;PMS7003;67572;50.930;18.276;2023-04-07T09:55:28;30.75;24.75;15.75
78316;PMS7003;67572;50.930;18.276;2023-04-07T09:58:33;17.50;14.75;11.50
78316;PMS7003;67572;50.930;18.276;2023-04-07T10:01:41;20.00;17.00;10.00
78316;PMS7003;67572;50.930;18.276;2023-04-07T10:04:45;21.25;13.00;5.00
78316;PMS7003;67572;50.930;18.276;2023-04-07T10:07:49;20.25;18.50;12.25
78316;PMS7003;67572;50.930;18.276;2023-04-07T10:10:55;29.00;23.00;15.75
78316;PMS7003;67572;50.930;18.276;2023-04-07T10:13:59;16.50;14.50;10.50
78316;PMS7003;67572;50.930;18.276;2023-04-07T10:17:07;7.50;6.50;6.50
78316;PMS7003;67572;50.930;18.276;2023-04-07T10:20:11;21.75;20.00;14.75
78316;PMS7003;67572;50.930;18.276;2023-04-07T10:23:18;27.00;20.00;12.00
78316;PMS7003;67572;50.930;18.276;2023-04-07T10:26:24;23.50;20.75;12.75
78316;PMS7003;67572;50.930;18.276;2023-04-07T10:29:33;19.00;11.25;5.50
78316;PMS7003;67572;50.930;18.276;2023-04-07T10:32:46;17.50;15.00;12.00
78316;PMS7003;67572;50.930;18.276;2023-04-07T10:36:03;18.25;16.50;12.50
78316;PMS7003;67572;50.930;18.276;2023-04-07T10:39:18;19.25;13.00;10.00
78316;PMS7003;67572;50.930;18.276;2023-04-07T10:45:53;22.50;20.00;12.75
78316;PMS7003;67572;50.930;18.276;2023-04-07T10:49:10;52.33;45.33;30.00
78316;PMS7003;67572;50.930;18.276;2023-04-07T10:52:22;23.25;13.50;13.50
78316;PMS7003;67572;50.930;18.276;2023-04-07T10:55:36;17.67;16.67;10.67
78316;PMS7003;67572;50.930;18.276;2023-04-07T10:58:41;100.33;79.67;49.00
78316;PMS7003;67572;50.930;18.276;2023-04-07T11:01:48;36.00;32.33;21.33
78316;PMS7003;67572;50.930;18.276;2023-04-07T11:04:53;44.00;39.67;21.67
78316;PMS7003;67572;50.930;18.276;2023-04-07T11:07:56;34.33;24.33;18.33
78316;PMS7003;67572;50.930;18.276;2023-04-07T11:11:03;35.50;31.50;18.75
78316;PMS7003;67572;50.930;18.276;2023-04-07T11:14:23;24.50;21.25;15.50
78316;PMS7003;67572;50.930;18.276;2023-04-07T11:17:29;20.75;18.50;12.50
78316;PMS7003;67572;50.930;18.276;2023-04-07T11:20:40;25.50;21.75;15.00
78316;PMS7003;67572;50.930;18.276;2023-04-07T11:23:47;26.50;24.75;17.50
78316;PMS7003;67572;50.930;18.276;2023-04-07T11:26:50;24.50;23.00;14.00
78316;PMS7003;67572;50.930;18.276;2023-04-07T11:29:54;49.33;39.33;25.00
78316;PMS7003;67572;50.930;18.276;2023-04-07T11:32:58;35.33;31.33;16.67
78316;PMS7003;67572;50.930;18.276;2023-04-07T11:36:05;25.75;23.00;17.50
78316;PMS7003;67572;50.930;18.276;2023-04-07T11:39:17;19.75;15.75;11.75
78316;PMS7003;67572;50.930;18.276;2023-04-07T11:42:32;23.75;21.50;14.50
78316;PMS7003;67572;50.930;18.276;2023-04-07T11:45:35;7.75;7.75;7.25
78316;PMS7003;67572;50.930;18.276;2023-04-07T11:48:39;33.50;28.25;17.75
78316;PMS7003;67572;50.930;18.276;2023-04-07T11:51:46;26.75;21.00;14.50
78316;PMS7003;67572;50.930;18.276;2023-04-07T11:54:49;54.67;42.67;29.00
78316;PMS7003;67572;50.930;18.276;2023-04-07T11:57:52;19.67;14.33;8.67
78316;PMS7003;67572;50.930;18.276;2023-04-07T12:00:56;47.33;40.67;27.00
78316;PMS7003;67572;50.930;18.276;2023-04-07T12:04:05;67.67;54.33;33.00
78316;PMS7003;67572;50.930;18.276;2023-04-07T12:07:10;23.75;20.75;13.50
78316;PMS7003;67572;50.930;18.276;2023-04-07T12:10:17;30.00;24.50;17.75
78316;PMS7003;67572;50.930;18.276;2023-04-07T12:13:21;16.00;14.00;10.00
78316;PMS7003;67572;50.930;18.276;2023-04-07T12:16:25;18.00;15.00;10.50
78316;PMS7003;67572;50.930;18.276;2023-04-07T12:19:29;19.50;15.50;12.50
78316;PMS7003;67572;50.930;18.276;2023-04-07T12:22:36;24.50;24.00;18.00
78316;PMS7003;67572;50.930;18.276;2023-04-07T12:25:40;29.00;27.00;18.00
78316;PMS7003;67572;50.930;18.276;2023-04-07T12:28:43;23.00;21.50;13.50
78316;PMS7003;67572;50.930;18.276;2023-04-07T12:31:47;18.50;18.50;13.25
78316;PMS7003;67572;50.930;18.276;2023-04-07T12:34:52;25.25;23.50;17.50
78316;PMS7003;67572;50.930;18.276;2023-04-07T12:37:56;25.25;19.00;15.50
78316;PMS7003;67572;50.930;18.276;2023-04-07T12:41:00;21.25;18.25;10.00
78316;PMS7003;67572;50.930;18.276;2023-04-07T12:44:04;16.25;14.75;11.50
78316;PMS7003;67572;50.930;18.276;2023-04-07T12:47:08;26.75;17.25;14.00
78316;PMS7003;67572;50.930;18.276;2023-04-07T12:50:12;15.00;15.00;10.00
78316;PMS7003;67572;50.930;18.276;2023-04-07T12:53:18;20.00;17.50;12.00
78316;PMS7003;67572;50.930;18.276;2023-04-07T12:56:21;18.25;7.00;6.00
78316;PMS7003;67572;50.930;18.276;2023-04-07T12:59:24;24.50;19.50;13.00
78316;PMS7003;67572;50.930;18.276;2023-04-07T13:02:28;27.00;24.25;16.00
78316;PMS7003;67572;50.930;18.276;2023-04-07T13:05:31;21.75;19.00;15.00
78316;PMS7003;67572;50.930;18.276;2023-04-07T13:08:37;28.50;24.00;17.50
78316;PMS7003;67572;50.930;18.276;2023-04-07T13:11:41;13.50;12.75;9.75
78316;PMS7003;67572;50.930;18.276;2023-04-07T13:14:45;23.25;21.25;15.00
78316;PMS7003;67572;50.930;18.276;2023-04-07T13:18:00;12.00;11.75;6.50
78316;PMS7003;67572;50.930;18.276;2023-04-07T13:21:04;44.33;39.00;28.00
78316;PMS7003;67572;50.930;18.276;2023-04-07T13:24:30;33.25;31.75;23.00
78316;PMS7003;67572;50.930;18.276;2023-04-07T13:27:33;36.50;24.25;19.00
78316;PMS7003;67572;50.930;18.276;2023-04-07T13:30:36;46.00;41.00;30.33
78316;PMS7003;67572;50.930;18.276;2023-04-07T13:33:42;32.00;28.00;20.50
78316;PMS7003;67572;50.930;18.276;2023-04-07T13:36:45;43.25;33.50;25.00
78316;PMS7003;67572;50.930;18.276;2023-04-07T13:39:50;41.25;36.75;24.50
78316;PMS7003;67572;50.930;18.276;2023-04-07T13:42:54;61.33;51.67;34.00
78316;PMS7003;67572;50.930;18.276;2023-04-07T13:45:58;42.33;28.67;18.00
78316;PMS7003;67572;50.930;18.276;2023-04-07T13:49:01;41.25;37.25;20.00
78316;PMS7003;67572;50.930;18.276;2023-04-07T13:52:04;40.25;33.25;22.25
78316;PMS7003;67572;50.930;18.276;2023-04-07T13:55:09;20.50;18.75;13.00
78316;PMS7003;67572;50.930;18.276;2023-04-07T13:58:14;9.25;7.50;6.25
78316;PMS7003;67572;50.930;18.276;2023-04-07T14:01:17;12.00;12.00;8.00
78316;PMS7003;67572;50.930;18.276;2023-04-07T14:04:21;13.50;9.25;7.00
78316;PMS7003;67572;50.930;18.276;2023-04-07T14:07:25;12.50;9.25;9.00
78316;PMS7003;67572;50.930;18.276;2023-04-07T14:10:29;28.00;26.25;18.25
78316;PMS7003;67572;50.930;18.276;2023-04-07T14:13:34;17.00;17.00;11.50
78316;PMS7003;67572;50.930;18.276;2023-04-07T14:16:37;24.50;24.50;13.25
78316;PMS7003;67572;50.930;18.276;2023-04-07T14:19:41;15.50;11.50;9.00
78316;PMS7003;67572;50.930;18.276;2023-04-07T14:22:44;17.75;17.75;11.00
78316;PMS7003;67572;50.930;18.276;2023-04-07T14:25:49;16.75;14.50;11.25
78316;PMS7003;67572;50.930;18.276;2023-04-07T14:28:52;12.50;11.50;9.00
78316;PMS7003;67572;50.930;18.276;2023-04-07T14:31:56;11.75;10.25;8.50
78316;PMS7003;67572;50.930;18.276;2023-04-07T14:34:59;26.25;23.00;16.00
78316;PMS7003;67572;50.930;18.276;2023-04-07T14:38:03;13.75;9.00;7.00
78316;PMS7003;67572;50.930;18.276;2023-04-07T14:41:09;16.00;11.50;7.00
78316;PMS7003;67572;50.930;18.276;2023-04-07T14:44:13;14.25;13.00;10.00
78316;PMS7003;67572;50.930;18.276;2023-04-07T14:47:17;21.00;13.50;9.50
78316;PMS7003;67572;50.930;18.276;2023-04-07T14:50:21;10.00;9.00;8.00
78316;PMS7003;67572;50.930;18.276;2023-04-07T14:53:25;12.50;12.50;10.50
78316;PMS7003;67572;50.930;18.276;2023-04-07T14:56:33;17.75;14.50;9.00
78316;PMS7003;67572;50.930;18.276;2023-04-07T14:59:37;9.00;6.75;6.00
78316;PMS7003;67572;50.930;18.276;2023-04-07T15:02:40;15.25;13.50;9.75
78316;PMS7003;67572;50.930;18.276;2023-04-07T15:05:44;16.25;13.75;8.25
78316;PMS7003;67572;50.930;18.276;2023-04-07T15:08:48;12.00;10.00;8.75
78316;PMS7003;67572;50.930;18.276;2023-04-07T15:11:54;13.75;10.50;8.00
78316;PMS7003;67572;50.930;18.276;2023-04-07T15:14:59;8.25;6.50;5.00
78316;PMS7003;67572;50.930;18.276;2023-04-07T15:18:03;11.50;8.00;6.00
78316;PMS7003;67572;50.930;18.276;2023-04-07T15:21:06;10.25;9.25;7.00
78316;PMS7003;67572;50.930;18.276;2023-04-07T15:24:13;14.25;13.75;9.75
78316;PMS7003;67572;50.930;18.276;2023-04-07T15:27:18;14.00;12.50;10.50
78316;PMS7003;67572;50.930;18.276;2023-04-07T15:30:22;15.50;15.00;12.25
78316;PMS7003;67572;50.930;18.276;2023-04-07T15:33:26;20.00;13.50;9.75
78316;PMS7003;67572;50.930;18.276;2023-04-07T15:36:29;35.00;32.00;23.00
78316;PMS7003;67572;50.930;18.276;2023-04-07T15:39:33;61.50;43.25;26.25
78316;PMS7003;67572;50.930;18.276;2023-04-07T15:42:38;29.25;24.75;16.25
78316;PMS7003;67572;50.930;18.276;2023-04-07T15:45:43;59.67;45.67;34.00
78316;PMS7003;67572;50.930;18.276;2023-04-07T15:48:48;73.33;57.33;35.33
78316;PMS7003;67572;50.930;18.276;2023-04-07T15:51:52;128.50;113.25;62.50
78316;PMS7003;67572;50.930;18.276;2023-04-07T15:54:56;105.67;81.67;52.00
78316;PMS7003;67572;50.930;18.276;2023-04-07T15:58:02;126.00;105.00;59.75
78316;PMS7003;67572;50.930;18.276;2023-04-07T16:01:06;111.67;93.67;60.67
78316;PMS7003;67572;50.930;18.276;2023-04-07T16:04:10;48.00;41.75;28.50
78316;PMS7003;67572;50.930;18.276;2023-04-07T16:07:14;37.00;31.75;20.25
78316;PMS7003;67572;50.930;18.276;2023-04-07T16:10:17;39.25;30.50;19.75
78316;PMS7003;67572;50.930;18.276;2023-04-07T16:13:22;27.25;26.25;21.00
78316;PMS7003;67572;50.930;18.276;2023-04-07T16:16:26;29.00;22.00;14.00
78316;PMS7003;67572;50.930;18.276;2023-04-07T16:19:30;30.75;24.00;17.50
78316;PMS7003;67572;50.930;18.276;2023-04-07T16:22:33;31.25;27.75;21.25
78316;PMS7003;67572;50.930;18.276;2023-04-07T16:25:38;19.50;19.50;15.00
78316;PMS7003;67572;50.930;18.276;2023-04-07T16:28:44;24.00;21.00;13.00
78316;PMS7003;67572;50.930;18.276;2023-04-07T16:31:48;19.75;15.50;11.00
78316;PMS7003;67572;50.930;18.276;2023-04-07T16:34:51;24.50;17.75;10.25
78316;PMS7003;67572;50.930;18.276;2023-04-07T16:37:55;20.00;19.00;12.25
78316;PMS7003;67572;50.930;18.276;2023-04-07T16:41:02;26.00;20.50;14.00
78316;PMS7003;67572;50.930;18.276;2023-04-07T16:44:07;27.25;23.25;18.25
78316;PMS7003;67572;50.930;18.276;2023-04-07T16:47:11;15.00;12.75;9.50
78316;PMS7003;67572;50.930;18.276;2023-04-07T16:50:15;18.25;17.25;13.00
78316;PMS7003;67572;50.930;18.276;2023-04-07T16:53:19;14.50;11.75;9.00
78316;PMS7003;67572;50.930;18.276;2023-04-07T16:56:23;21.50;19.00;13.00
78316;PMS7003;67572;50.930;18.276;2023-04-07T16:59:28;37.00;29.50;20.00
78316;PMS7003;67572;50.930;18.276;2023-04-07T17:02:32;28.50;26.00;19.25
78316;PMS7003;67572;50.930;18.276;2023-04-07T17:05:36;19.50;18.25;13.00
78316;PMS7003;67572;50.930;18.276;2023-04-07T17:08:40;14.00;12.50;9.75
78316;PMS7003;67572;50.930;18.276;2023-04-07T17:11:43;17.50;17.50;13.00
78316;PMS7003;67572;50.930;18.276;2023-04-07T17:14:48;18.00;16.00;10.00